Time;durP1;ratioP1;P1;durP2;ratioP2;P2;SDS_P1;SDS_P2;PMS_P1;PMS_P2;Temp;Humidity;BMP_temperature;BMP_pressure;BME280_temperature;BME280_humidity;BME280_pressure;Samples;Min_cycle;Max_cycle;Signal;HPM_P1;HPM_P2
2021/07/10 00:00:35;;;;;;;15.70;13.83;;;17.80;99.90;;;;;;4937265;28;20900;-65
2021/07/10 00:03:03;;;;;;;15.80;13.67;;;17.90;99.90;;;;;;4938717;28;20638;-66
2021/07/10 00:05:30;;;;;;;14.80;12.80;;;17.80;99.90;;;;;;4940830;28;21295;-66
2021/07/10 00:08:00;;;;;;;14.57;13.07;;;17.90;99.90;;;;;;4941369;28;20607;-65
2021/07/10 00:10:26;;;;;;;14.60;13.20;;;17.90;99.90;;;;;;4937366;28;20762;-65
2021/07/10 00:12:53;;;;;;;17.87;14.30;;;17.90;99.90;;;;;;4941442;28;21162;-65
2021/07/10 00:15:24;;;;;;;18.40;14.57;;;17.90;99.90;;;;;;4934635;28;21185;-65
2021/07/10 00:17:53;;;;;;;17.30;14.27;;;17.80;99.90;;;;;;4936903;28;20634;-65
2021/07/10 00:20:20;;;;;;;16.77;14.10;;;17.80;99.90;;;;;;4937769;28;20665;-66
2021/07/10 00:22:46;;;;;;;15.67;14.17;;;17.80;99.90;;;;;;4938731;28;21191;-65
2021/07/10 00:25:17;;;;;;;14.83;13.33;;;17.90;99.90;;;;;;4943547;28;20615;-67
2021/07/10 00:27:47;;;;;;;15.20;13.40;;;17.80;99.90;;;;;;4935643;28;20584;-64
2021/07/10 00:30:17;;;;;;;15.27;13.70;;;17.80;99.90;;;;;;4936966;28;20762;-65
2021/07/10 00:32:44;;;;;;;14.80;13.23;;;17.80;99.90;;;;;;4932972;28;20627;-64
2021/07/10 00:35:10;;;;;;;16.00;14.40;;;17.80;99.90;;;;;;4935781;28;20621;-64
2021/07/10 00:37:36;;;;;;;15.23;13.73;;;17.70;99.90;;;;;;4933295;28;20701;-65
2021/07/10 00:40:07;;;;;;;16.63;14.97;;;17.70;99.90;;;;;;4949515;28;20670;-64
2021/07/10 00:42:34;;;;;;;15.67;14.00;;;17.70;99.90;;;;;;4935492;28;21175;-64
2021/07/10 00:45:02;;;;;;;14.43;12.93;;;17.70;99.90;;;;;;4937269;28;20619;-66
2021/07/10 00:47:30;;;;;;;18.90;14.70;;;17.60;99.90;;;;;;4935495;28;20634;-65
2021/07/10 00:49:56;;;;;;;15.57;13.90;;;17.60;99.90;;;;;;4940278;28;20744;-65
2021/07/10 00:52:22;;;;;;;14.97;13.50;;;17.60;99.90;;;;;;4934209;28;21874;-64
2021/07/10 00:54:48;;;;;;;15.30;13.77;;;17.60;99.90;;;;;;4936955;28;20204;-64
2021/07/10 00:57:14;;;;;;;18.10;14.63;;;17.60;99.90;;;;;;4932562;28;20258;-65
2021/07/10 00:59:41;;;;;;;16.27;14.30;;;17.50;99.90;;;;;;4935689;28;20661;-64
2021/07/10 01:02:10;;;;;;;15.93;14.30;;;17.50;99.90;;;;;;4942293;28;20987;-64
2021/07/10 01:04:36;;;;;;;14.23;12.93;;;17.60;99.90;;;;;;4939029;28;20816;-64
2021/07/10 01:07:01;;;;;;;16.43;14.70;;;17.60;99.90;;;;;;4939906;28;20619;-65
2021/07/10 01:09:27;;;;;;;15.43;13.93;;;17.60;99.90;;;;;;4935257;28;20233;-64
2021/07/10 01:11:55;;;;;;;12.30;11.03;;;17.60;99.90;;;;;;4936160;28;20707;-65
2021/07/10 01:14:24;;;;;;;15.33;13.17;;;17.60;99.90;;;;;;4939307;28;20188;-64
2021/07/10 01:16:49;;;;;;;14.63;12.30;;;17.50;99.90;;;;;;4937384;28;20623;-64
2021/07/10 01:19:26;;;;;;;15.07;13.17;;;17.60;99.90;;;;;;4933815;28;20728;-64
2021/07/10 01:21:58;;;;;;;14.50;13.07;;;17.60;99.90;;;;;;4934132;28;20277;-64
2021/07/10 01:24:25;;;;;;;15.60;12.90;;;17.60;99.90;;;;;;4940226;28;20602;-64
2021/07/10 01:26:51;;;;;;;16.63;14.37;;;17.50;99.90;;;;;;4941408;28;20611;-65
2021/07/10 01:29:17;;;;;;;14.87;13.27;;;17.50;99.90;;;;;;4936958;28;20995;-64
2021/07/10 01:31:43;;;;;;;14.77;13.27;;;17.40;99.90;;;;;;4937936;28;21693;-64
2021/07/10 01:34:14;;;;;;;15.43;13.83;;;17.40;99.90;;;;;;4942260;28;20711;-64
2021/07/10 01:36:41;;;;;;;15.00;13.50;;;17.40;99.90;;;;;;4940654;28;20195;-64
2021/07/10 01:39:07;;;;;;;15.87;14.00;;;17.40;99.90;;;;;;4940546;28;20639;-64
2021/07/10 01:41:48;;;;;;;14.77;13.17;;;17.40;99.90;;;;;;4932348;28;21239;-66
2021/07/10 01:44:16;;;;;;;17.23;14.60;;;17.40;99.90;;;;;;4936792;28;20585;-64
2021/07/10 01:46:42;;;;;;;15.40;13.80;;;17.30;99.90;;;;;;4939095;28;21012;-65
2021/07/10 01:49:10;;;;;;;15.50;13.97;;;17.40;99.90;;;;;;4937181;28;20654;-64
2021/07/10 01:51:36;;;;;;;15.97;14.27;;;17.30;99.90;;;;;;4938187;28;20192;-65
2021/07/10 01:54:02;;;;;;;15.20;13.60;;;17.30;99.90;;;;;;4936246;28;20643;-65
2021/07/10 01:56:31;;;;;;;14.47;12.97;;;17.20;99.90;;;;;;4931450;28;20195;-64
2021/07/10 01:58:57;;;;;;;16.87;14.83;;;17.20;99.90;;;;;;4931521;28;20710;-65
2021/07/10 02:01:25;;;;;;;16.33;14.60;;;17.20;99.90;;;;;;4935833;28;20781;-65
2021/07/10 02:03:51;;;;;;;14.50;13.10;;;17.30;99.90;;;;;;4941571;28;20180;-65
2021/07/10 02:06:19;;;;;;;16.27;14.67;;;17.20;99.90;;;;;;4945709;28;20627;-64
2021/07/10 02:08:50;;;;;;;14.83;13.23;;;17.20;99.90;;;;;;4936568;28;20196;-65
2021/07/10 02:11:18;;;;;;;16.10;14.13;;;17.20;99.90;;;;;;4935685;28;20615;-65
2021/07/10 02:13:43;;;;;;;15.33;13.80;;;17.20;99.90;;;;;;4935129;28;20623;-65
2021/07/10 02:16:18;;;;;;;16.53;14.83;;;17.10;99.90;;;;;;4936962;28;21024;-64
2021/07/10 02:18:45;;;;;;;15.90;14.30;;;17.20;99.90;;;;;;4936530;28;20651;-64
2021/07/10 02:21:14;;;;;;;18.77;15.43;;;17.10;99.90;;;;;;4934988;28;21040;-64
2021/07/10 02:23:39;;;;;;;15.40;13.73;;;17.10;99.90;;;;;;4933699;28;21407;-65
2021/07/10 02:26:28;;;;;;;17.73;16.03;;;17.10;99.90;;;;;;5065466;27;24692;-66
2021/07/10 02:28:56;;;;;;;16.50;14.90;;;17.20;99.90;;;;;;5049494;28;20605;-65
2021/07/10 02:31:24;;;;;;;17.70;15.97;;;17.20;99.90;;;;;;5044777;28;20989;-64
2021/07/10 02:33:55;;;;;;;16.90;14.90;;;17.20;99.90;;;;;;5046427;28;20636;-65
2021/07/10 02:36:25;;;;;;;19.43;15.50;;;17.10;99.90;;;;;;5048069;28;20960;-64
2021/07/10 02:38:50;;;;;;;17.73;15.93;;;17.00;99.90;;;;;;5042377;28;21145;-64
2021/07/10 02:41:16;;;;;;;17.43;15.63;;;17.00;99.90;;;;;;5045873;28;20649;-64
2021/07/10 02:43:41;;;;;;;17.30;14.90;;;17.00;99.90;;;;;;5046898;28;20203;-64
2021/07/10 02:46:08;;;;;;;18.00;16.10;;;17.00;99.90;;;;;;5046684;28;20191;-65
2021/07/10 02:48:36;;;;;;;16.07;14.30;;;17.00;99.90;;;;;;5046783;28;20192;-64
2021/07/10 02:51:12;;;;;;;16.17;14.40;;;17.00;99.90;;;;;;5047684;28;20660;-66
2021/07/10 02:53:41;;;;;;;16.30;14.60;;;17.00;99.90;;;;;;5044996;28;20753;-65
2021/07/10 02:56:06;;;;;;;18.53;15.07;;;17.00;99.90;;;;;;5040904;28;20650;-66
2021/07/10 02:58:32;;;;;;;14.90;13.40;;;17.00;99.90;;;;;;5044030;28;21241;-63
2021/07/10 03:00:58;;;;;;;17.00;14.37;;;17.00;99.90;;;;;;5043346;28;20260;-64
2021/07/10 03:03:26;;;;;;;15.60;13.70;;;17.00;99.90;;;;;;5045900;28;20759;-64
2021/07/10 03:05:54;;;;;;;15.80;14.20;;;16.90;99.90;;;;;;5045204;28;20241;-65
2021/07/10 03:08:21;;;;;;;15.50;13.87;;;16.90;99.90;;;;;;5044940;28;20972;-64
2021/07/10 03:10:49;;;;;;;14.80;12.30;;;16.90;99.90;;;;;;5041386;28;21004;-65
2021/07/10 03:13:18;;;;;;;15.60;14.00;;;16.90;99.90;;;;;;5043710;28;20617;-64
2021/07/10 03:15:46;;;;;;;15.50;13.50;;;17.00;99.90;;;;;;5042986;28;20942;-64
2021/07/10 03:18:12;;;;;;;16.43;14.70;;;17.00;99.90;;;;;;5041582;28;20626;-65
2021/07/10 03:20:40;;;;;;;14.50;13.00;;;16.90;99.90;;;;;;5042906;28;20676;-65
2021/07/10 03:23:11;;;;;;;14.23;12.83;;;16.90;99.90;;;;;;5041893;28;20184;-64
2021/07/10 03:25:41;;;;;;;15.33;13.40;;;16.90;99.90;;;;;;5042750;28;20646;-65
2021/07/10 03:28:12;;;;;;;14.87;13.47;;;16.90;99.90;;;;;;5043537;28;20718;-64
2021/07/10 03:30:39;;;;;;;14.30;12.80;;;16.90;99.90;;;;;;5044723;28;20661;-65
2021/07/10 03:33:04;;;;;;;15.90;14.00;;;16.90;99.90;;;;;;5044958;28;21068;-64
2021/07/10 03:35:32;;;;;;;16.17;13.33;;;16.90;99.90;;;;;;5042643;28;20786;-64
2021/07/10 03:38:00;;;;;;;14.73;13.03;;;17.00;99.90;;;;;;5028517;28;20262;-64
2021/07/10 03:40:28;;;;;;;13.33;11.93;;;17.00;99.90;;;;;;5032416;28;20633;-64
2021/07/10 03:42:55;;;;;;;14.20;12.70;;;17.00;99.90;;;;;;5030313;28;20614;-65
2021/07/10 03:45:21;;;;;;;12.97;11.13;;;17.00;99.90;;;;;;5031768;28;20706;-64
2021/07/10 03:47:48;;;;;;;14.97;12.33;;;17.00;99.90;;;;;;5032891;28;20622;-65
2021/07/10 03:50:15;;;;;;;12.33;11.23;;;17.00;99.90;;;;;;5027237;28;20659;-65
2021/07/10 03:52:41;;;;;;;12.53;11.40;;;17.10;99.90;;;;;;5025442;28;20653;-66
2021/07/10 03:55:11;;;;;;;14.00;11.93;;;17.10;99.90;;;;;;5032597;28;20754;-66
2021/07/10 03:57:37;;;;;;;13.60;11.67;;;17.10;99.90;;;;;;5031830;28;20594;-65
2021/07/10 04:00:11;;;;;;;12.70;11.50;;;17.10;99.90;;;;;;5030248;28;20657;-65
2021/07/10 04:02:37;;;;;;;13.10;11.80;;;17.00;99.90;;;;;;5030668;28;21045;-66
2021/07/10 04:05:07;;;;;;;13.50;12.20;;;17.00;99.90;;;;;;5030810;28;20679;-65
2021/07/10 04:07:37;;;;;;;12.53;11.27;;;17.10;99.90;;;;;;5031714;28;20192;-66
2021/07/10 04:10:15;;;;;;;12.23;10.93;;;17.10;99.90;;;;;;5028806;28;20658;-66
2021/07/10 04:12:44;;;;;;;12.97;11.60;;;17.10;99.90;;;;;;5029455;28;20590;-64
2021/07/10 04:15:12;;;;;;;13.53;11.83;;;17.00;99.90;;;;;;5031909;28;20678;-65
2021/07/10 04:17:38;;;;;;;12.37;11.17;;;17.00;99.90;;;;;;5031365;28;21047;-64
2021/07/10 04:20:11;;;;;;;13.10;11.80;;;17.00;99.90;;;;;;5034922;28;21011;-64
2021/07/10 04:22:37;;;;;;;12.77;11.43;;;17.00;99.90;;;;;;5034237;28;20603;-64
2021/07/10 04:25:04;;;;;;;12.30;11.20;;;17.00;99.90;;;;;;5027567;28;21242;-65
2021/07/10 04:27:31;;;;;;;13.27;11.87;;;17.00;99.90;;;;;;5032459;28;21197;-65
2021/07/10 04:29:59;;;;;;;12.03;10.77;;;17.00;99.90;;;;;;5033059;28;20643;-65
2021/07/10 04:32:25;;;;;;;12.17;10.93;;;17.00;99.90;;;;;;5034552;28;21208;-65
2021/07/10 04:34:51;;;;;;;12.80;11.27;;;17.00;99.90;;;;;;5026588;28;20647;-66
2021/07/10 04:37:16;;;;;;;12.23;11.10;;;17.00;99.90;;;;;;5030481;28;20190;-64
2021/07/10 04:39:47;;;;;;;13.23;11.93;;;16.90;99.90;;;;;;5029423;28;20227;-64
2021/07/10 04:42:12;;;;;;;12.80;11.70;;;17.00;99.90;;;;;;5029865;28;20644;-64
2021/07/10 04:44:38;;;;;;;13.57;11.80;;;17.00;99.90;;;;;;5029136;28;20612;-65
2021/07/10 04:47:04;;;;;;;13.00;11.60;;;17.10;99.90;;;;;;5031420;28;20669;-65
2021/07/10 04:49:37;;;;;;;13.30;12.00;;;17.10;99.90;;;;;;5030375;28;20691;-64
2021/07/10 04:52:03;;;;;;;12.53;11.33;;;17.00;99.90;;;;;;5029465;28;20657;-65
2021/07/10 04:54:29;;;;;;;13.00;11.60;;;17.00;99.90;;;;;;5035583;28;21212;-65
2021/07/10 04:56:56;;;;;;;11.87;10.70;;;17.00;99.90;;;;;;5029567;28;20195;-65
2021/07/10 04:59:22;;;;;;;11.40;10.20;;;17.00;99.90;;;;;;5031122;28;20254;-63
2021/07/10 05:01:53;;;;;;;11.70;10.50;;;17.10;99.90;;;;;;5033409;28;21229;-64
2021/07/10 05:04:18;;;;;;;11.70;10.50;;;17.10;99.90;;;;;;5030300;28;20665;-64
2021/07/10 05:06:44;;;;;;;12.10;10.90;;;17.10;99.90;;;;;;5034618;28;20656;-65
2021/07/10 05:09:19;;;;;;;12.10;10.80;;;17.20;99.90;;;;;;5029092;28;20714;-65
2021/07/10 05:11:48;;;;;;;15.10;11.73;;;17.20;99.90;;;;;;5033789;28;20184;-64
2021/07/10 05:14:18;;;;;;;11.67;10.40;;;17.10;99.90;;;;;;5029631;28;21160;-65
2021/07/10 05:16:43;;;;;;;11.37;10.30;;;17.20;99.90;;;;;;5026676;28;20621;-65
2021/07/10 05:19:17;;;;;;;13.60;11.23;;;17.20;99.90;;;;;;5024880;28;20650;-65
2021/07/10 05:21:42;;;;;;;11.90;10.70;;;17.10;99.90;;;;;;5031094;28;21635;-65
2021/07/10 05:24:08;;;;;;;11.77;10.53;;;17.20;99.90;;;;;;5031970;28;21153;-64
2021/07/10 05:26:36;;;;;;;10.83;9.83;;;17.10;99.90;;;;;;5030337;28;20266;-64
2021/07/10 05:29:04;;;;;;;12.23;11.13;;;17.20;99.90;;;;;;5033889;28;20205;-65
2021/07/10 05:31:33;;;;;;;12.70;10.50;;;17.20;99.90;;;;;;5028929;28;20642;-65
2021/07/10 05:34:01;;;;;;;10.50;9.50;;;17.10;99.90;;;;;;5031198;28;21410;-64
2021/07/10 05:36:29;;;;;;;12.20;11.03;;;17.30;99.90;;;;;;5033302;28;20619;-64
2021/07/10 05:38:57;;;;;;;10.37;9.37;;;17.20;99.90;;;;;;5026741;28;20645;-64
2021/07/10 05:41:23;;;;;;;11.63;10.17;;;17.20;99.90;;;;;;5028931;28;21272;-64
2021/07/10 05:43:48;;;;;;;10.47;9.50;;;17.40;99.90;;;;;;5033628;28;20614;-65
2021/07/10 05:46:16;;;;;;;12.17;10.13;;;17.40;99.90;;;;;;5030367;28;20188;-64
2021/07/10 05:48:42;;;;;;;10.80;9.70;;;17.40;99.90;;;;;;5026110;28;20660;-64
2021/07/10 05:51:12;;;;;;;10.53;9.50;;;17.40;99.90;;;;;;5030213;28;21172;-64
2021/07/10 05:53:41;;;;;;;13.00;10.70;;;17.40;99.90;;;;;;5026475;28;20196;-64
2021/07/10 05:56:06;;;;;;;12.20;10.90;;;17.40;99.90;;;;;;5029006;28;20639;-64
2021/07/10 05:58:32;;;;;;;10.87;9.87;;;17.50;99.90;;;;;;5028354;28;21021;-64
2021/07/10 06:00:58;;;;;;;11.10;10.10;;;17.50;99.90;;;;;;5029520;28;20593;-64
2021/07/10 06:03:23;;;;;;;11.13;10.00;;;17.50;99.90;;;;;;5028520;28;20184;-63
2021/07/10 06:05:49;;;;;;;11.80;10.70;;;17.50;99.90;;;;;;5024114;28;20553;-64
2021/07/10 06:08:15;;;;;;;10.90;9.80;;;17.60;99.90;;;;;;5034988;28;20223;-63
2021/07/10 06:10:40;;;;;;;11.90;9.60;;;17.70;99.90;;;;;;5037602;28;20641;-64
2021/07/10 06:13:06;;;;;;;10.20;9.30;;;17.70;99.90;;;;;;5035886;28;20680;-64
2021/07/10 06:15:32;;;;;;;9.97;8.90;;;17.80;99.90;;;;;;5035255;28;20204;-64
2021/07/10 06:17:57;;;;;;;11.30;10.20;;;17.80;99.90;;;;;;5032932;28;20188;-64
2021/07/10 06:20:23;;;;;;;10.57;9.17;;;17.80;99.90;;;;;;5038421;28;20578;-64
2021/07/10 06:22:50;;;;;;;15.10;9.83;;;17.90;99.90;;;;;;5041612;28;20770;-65
2021/07/10 06:25:18;;;;;;;9.77;8.90;;;17.90;99.90;;;;;;5033373;28;20204;-65
2021/07/10 06:27:44;;;;;;;9.70;8.90;;;18.00;99.90;;;;;;5037772;28;20622;-66
2021/07/10 06:30:11;;;;;;;10.77;8.80;;;18.10;99.90;;;;;;5037527;28;20682;-65
2021/07/10 06:32:38;;;;;;;9.23;8.43;;;18.20;99.90;;;;;;5034619;28;20650;-65
2021/07/10 06:35:05;;;;;;;10.77;9.87;;;18.20;99.90;;;;;;5039805;28;20673;-65
2021/07/10 06:37:33;;;;;;;9.40;8.20;;;18.20;99.90;;;;;;5035860;28;20677;-64
2021/07/10 06:39:59;;;;;;;9.37;8.57;;;18.30;99.90;;;;;;5039922;28;20630;-64
2021/07/10 06:42:24;;;;;;;9.17;8.30;;;18.40;99.90;;;;;;5037576;28;20999;-64
2021/07/10 06:44:50;;;;;;;8.90;8.00;;;18.40;99.90;;;;;;5030161;28;23040;-64
2021/07/10 06:47:15;;;;;;;9.10;7.90;;;18.40;99.90;;;;;;5033303;28;20220;-64
2021/07/10 06:49:41;;;;;;;9.57;8.57;;;18.40;99.90;;;;;;5036905;28;20646;-63
2021/07/10 06:52:07;;;;;;;9.03;8.23;;;18.50;99.90;;;;;;5041371;28;20230;-63
2021/07/10 06:54:33;;;;;;;9.57;8.57;;;18.60;99.90;;;;;;5026865;28;20614;-65
2021/07/10 06:56:59;;;;;;;8.07;7.27;;;18.60;99.90;;;;;;5036822;28;20615;-64
2021/07/10 06:59:24;;;;;;;8.60;7.70;;;18.60;99.90;;;;;;5031316;28;20758;-65
2021/07/10 07:01:52;;;;;;;8.33;7.40;;;18.60;99.90;;;;;;5027807;28;20197;-64
2021/07/10 07:04:18;;;;;;;8.40;7.60;;;18.60;99.90;;;;;;5030707;28;20271;-64
2021/07/10 07:06:46;;;;;;;8.00;7.30;;;18.60;99.90;;;;;;5034256;28;20606;-64
2021/07/10 07:09:12;;;;;;;8.73;7.93;;;18.60;99.90;;;;;;5030120;28;20666;-66
2021/07/10 07:11:38;;;;;;;8.30;7.60;;;18.60;99.90;;;;;;5034541;28;20619;-64
2021/07/10 07:14:03;;;;;;;8.07;7.37;;;18.70;99.90;;;;;;5032206;28;20227;-64
2021/07/10 07:16:29;;;;;;;8.50;7.60;;;18.70;99.90;;;;;;5034704;28;21181;-64
2021/07/10 07:18:55;;;;;;;8.97;8.20;;;18.80;99.90;;;;;;5034807;28;20245;-65
2021/07/10 07:21:20;;;;;;;7.93;7.07;;;18.70;99.90;;;;;;5033208;28;20184;-65
2021/07/10 07:23:46;;;;;;;8.37;7.57;;;18.70;99.90;;;;;;5038095;28;20192;-64
2021/07/10 07:26:12;;;;;;;8.83;8.03;;;18.80;99.90;;;;;;5044572;28;20603;-64
2021/07/10 07:28:38;;;;;;;9.17;8.37;;;18.70;99.90;;;;;;5039726;28;20188;-64
2021/07/10 07:31:04;;;;;;;8.57;7.77;;;18.70;99.90;;;;;;5033979;28;20663;-65
2021/07/10 07:33:30;;;;;;;7.87;7.27;;;18.70;99.90;;;;;;5043063;28;20180;-64
2021/07/10 07:35:56;;;;;;;8.33;7.53;;;18.80;99.90;;;;;;5041676;28;21165;-63
2021/07/10 07:38:22;;;;;;;7.97;7.37;;;18.90;99.90;;;;;;5039057;28;20181;-64
2021/07/10 07:40:48;;;;;;;8.03;7.33;;;18.80;99.90;;;;;;5033834;28;20682;-64
2021/07/10 07:43:13;;;;;;;7.87;7.17;;;18.80;99.90;;;;;;5039400;28;20180;-64
2021/07/10 07:45:39;;;;;;;7.90;7.20;;;18.90;99.90;;;;;;5035663;28;20993;-66
2021/07/10 07:48:07;;;;;;;8.10;7.13;;;18.90;99.90;;;;;;5042306;28;20586;-64
2021/07/10 07:50:33;;;;;;;7.73;7.03;;;19.00;99.90;;;;;;5037961;28;20204;-67
2021/07/10 07:52:59;;;;;;;7.70;6.73;;;19.00;99.90;;;;;;5037211;28;20959;-65
2021/07/10 07:55:24;;;;;;;8.37;7.67;;;19.10;99.90;;;;;;5044864;28;20224;-65
2021/07/10 07:57:50;;;;;;;7.47;6.67;;;19.00;99.90;;;;;;5038114;28;20273;-66
2021/07/10 08:00:23;;;;;;;7.60;7.00;;;19.00;99.90;;;;;;5031701;28;20726;-66
2021/07/10 08:02:49;;;;;;;7.33;6.73;;;19.10;99.90;;;;;;5038864;28;20189;-66
2021/07/10 08:05:16;;;;;;;6.87;6.30;;;19.20;99.90;;;;;;5038465;28;20701;-65
2021/07/10 08:07:44;;;;;;;8.40;7.53;;;19.30;99.90;;;;;;5037783;28;20630;-66
2021/07/10 08:10:12;;;;;;;7.63;6.93;;;19.50;99.90;;;;;;5033449;28;20674;-66
2021/07/10 08:12:39;;;;;;;7.20;6.60;;;19.60;99.90;;;;;;5041747;28;21192;-67
2021/07/10 08:15:14;;;;;;;6.83;6.17;;;19.60;99.90;;;;;;5039116;28;20657;-65
2021/07/10 08:17:40;;;;;;;6.80;6.30;;;19.60;99.90;;;;;;5037155;28;20612;-66
2021/07/10 08:20:08;;;;;;;8.00;6.70;;;19.60;99.90;;;;;;5039562;28;20642;-67
2021/07/10 08:22:34;;;;;;;7.03;6.50;;;19.70;99.90;;;;;;5039904;28;20623;-67
2021/07/10 08:25:00;;;;;;;7.23;6.53;;;19.80;99.90;;;;;;5044767;28;20699;-66
2021/07/10 08:27:25;;;;;;;6.70;6.10;;;19.80;99.90;;;;;;5037095;28;20729;-66
2021/07/10 08:29:51;;;;;;;6.80;6.30;;;20.00;99.90;;;;;;5043539;28;20208;-65
2021/07/10 08:32:16;;;;;;;6.87;6.23;;;19.80;99.90;;;;;;5039061;28;20254;-66
2021/07/10 08:34:42;;;;;;;6.70;6.07;;;19.90;99.90;;;;;;5037759;28;20215;-66
2021/07/10 08:37:08;;;;;;;6.73;6.20;;;19.90;99.90;;;;;;5035853;28;20212;-66
2021/07/10 08:39:34;;;;;;;6.70;6.10;;;20.00;99.90;;;;;;5041622;28;20295;-66
2021/07/10 08:42:00;;;;;;;6.83;6.03;;;19.90;99.90;;;;;;5040503;28;20525;-67
2021/07/10 08:44:28;;;;;;;7.20;6.60;;;19.80;99.90;;;;;;5039295;28;20714;-68
2021/07/10 08:46:54;;;;;;;6.77;6.07;;;19.80;99.90;;;;;;5040019;28;20203;-67
2021/07/10 08:49:20;;;;;;;7.00;6.43;;;19.90;99.90;;;;;;5041031;28;20647;-66
2021/07/10 08:51:47;;;;;;;7.80;7.10;;;20.00;99.90;;;;;;5039176;28;20234;-67
2021/07/10 08:54:16;;;;;;;7.67;6.97;;;20.00;99.90;;;;;;5039306;28;20187;-67
2021/07/10 08:56:43;;;;;;;7.83;7.10;;;20.20;99.90;;;;;;5043831;28;20616;-67
2021/07/10 08:59:10;;;;;;;8.63;7.73;;;20.30;99.90;;;;;;5043804;28;20681;-67
2021/07/10 09:01:36;;;;;;;7.30;6.73;;;20.40;99.90;;;;;;5040081;28;21212;-67
2021/07/10 09:04:01;;;;;;;7.80;7.20;;;20.60;99.90;;;;;;5037353;28;20623;-68
2021/07/10 09:06:27;;;;;;;7.87;7.17;;;20.50;99.90;;;;;;5037540;28;20222;-67
2021/07/10 09:08:55;;;;;;;8.13;7.43;;;20.60;99.90;;;;;;5041899;28;20249;-68
2021/07/10 09:11:24;;;;;;;7.40;6.80;;;20.70;99.90;;;;;;5043403;28;20181;-67
2021/07/10 09:13:52;;;;;;;7.47;6.90;;;20.60;99.90;;;;;;5045883;28;20987;-66
2021/07/10 09:16:29;;;;;;;8.57;7.87;;;20.60;99.90;;;;;;5044354;28;20639;-65
2021/07/10 09:18:56;;;;;;;7.80;7.20;;;20.70;99.90;;;;;;5043616;28;21208;-67
2021/07/10 09:21:40;;;;;;;8.33;7.63;;;20.70;99.90;;;;;;5030659;28;20631;-67
2021/07/10 09:24:14;;;;;;;7.90;7.20;;;20.80;99.90;;;;;;5040545;28;20632;-68
2021/07/10 09:26:52;;;;;;;8.17;7.40;;;20.80;99.90;;;;;;5039594;28;20589;-67
2021/07/10 09:29:21;;;;;;;7.87;7.17;;;20.80;99.90;;;;;;5040140;28;20679;-67
2021/07/10 09:31:54;;;;;;;8.23;7.57;;;20.70;99.90;;;;;;5036211;28;20716;-67
2021/07/10 09:34:33;;;;;;;7.70;7.00;;;20.40;99.90;;;;;;5037600;28;21053;-64
2021/07/10 09:37:02;;;;;;;7.63;6.93;;;20.30;99.90;;;;;;5038132;28;20623;-65
2021/07/10 09:39:31;;;;;;;8.13;6.53;;;20.30;99.90;;;;;;5040398;28;20655;-65
2021/07/10 09:42:01;;;;;;;8.27;7.40;;;20.50;99.90;;;;;;5036769;28;21067;-65
2021/07/10 09:44:47;;;;;;;7.70;7.10;;;20.60;99.90;;;;;;5038071;28;20649;-64
2021/07/10 09:47:14;;;;;;;7.30;6.70;;;20.60;99.90;;;;;;5035132;28;21313;-65
2021/07/10 09:49:43;;;;;;;6.90;6.33;;;20.60;99.90;;;;;;5048615;23;20794;-68
2021/07/10 09:52:13;;;;;;;7.40;6.77;;;20.60;99.90;;;;;;5023409;28;21162;-69
2021/07/10 09:54:41;;;;;;;9.03;6.70;;;20.70;99.90;;;;;;5022035;28;20782;-69
2021/07/10 09:57:10;;;;;;;7.43;6.90;;;20.90;99.90;;;;;;5026382;28;20638;-72
2021/07/10 09:59:50;;;;;;;6.60;6.00;;;21.20;99.90;;;;;;5021874;28;20671;-72
2021/07/10 10:02:22;;;;;;;6.87;5.80;;;21.20;99.90;;;;;;4997297;28;20629;-72
2021/07/10 10:04:49;;;;;;;6.47;5.87;;;21.10;99.90;;;;;;4997546;28;20674;-72
2021/07/10 10:07:20;;;;;;;6.27;5.77;;;21.10;99.90;;;;;;4999736;28;20825;-72
2021/07/10 10:09:57;;;;;;;6.10;5.67;;;21.20;99.90;;;;;;5001467;28;20651;-71
2021/07/10 10:12:24;;;;;;;6.20;5.70;;;21.30;99.90;;;;;;5005223;28;20604;-70
2021/07/10 10:14:52;;;;;;;6.70;6.10;;;21.50;99.90;;;;;;5005144;28;20655;-71
2021/07/10 10:17:20;;;;;;;6.80;6.20;;;21.40;99.90;;;;;;5001707;28;20621;-71
2021/07/10 10:19:46;;;;;;;6.80;6.20;;;21.60;99.90;;;;;;4996407;28;20671;-69
2021/07/10 10:22:15;;;;;;;6.30;5.80;;;21.70;99.90;;;;;;4995820;28;21379;-69
2021/07/10 10:24:43;;;;;;;6.70;6.20;;;21.90;99.90;;;;;;5013183;28;20682;-68
2021/07/10 10:27:10;;;;;;;6.60;6.10;;;22.00;99.90;;;;;;4997818;28;20619;-71
2021/07/10 10:29:36;;;;;;;6.30;5.80;;;22.10;99.90;;;;;;5002602;28;20659;-68
2021/07/10 10:32:03;;;;;;;7.00;6.50;;;22.10;99.90;;;;;;5009761;28;20646;-68
2021/07/10 10:34:32;;;;;;;6.33;5.80;;;22.00;99.90;;;;;;5010697;28;21191;-68
2021/07/10 10:36:58;;;;;;;6.37;5.87;;;22.00;99.90;;;;;;5008857;28;20600;-69
2021/07/10 10:39:33;;;;;;;6.20;5.70;;;22.10;99.90;;;;;;5006376;28;20643;-68
2021/07/10 10:42:06;;;;;;;6.10;5.60;;;22.30;99.90;;;;;;5006821;28;20561;-68
2021/07/10 10:44:40;;;;;;;6.10;5.50;;;22.40;99.90;;;;;;5008923;28;20561;-68
2021/07/10 10:47:09;;;;;;;7.80;5.80;;;22.50;99.90;;;;;;5007944;28;20618;-68
2021/07/10 10:49:49;;;;;;;6.60;6.10;;;22.70;99.90;;;;;;5012918;28;20736;-68
2021/07/10 10:52:41;;;;;;;7.30;6.30;;;22.70;99.90;;;;;;5011479;28;20753;-68
2021/07/10 10:55:10;;;;;;;6.57;6.07;;;22.90;99.90;;;;;;5009027;28;20742;-68
2021/07/10 10:57:59;;;;;;;5.47;5.07;;;22.70;99.90;;;;;;5010971;28;20611;-68
2021/07/10 11:00:24;;;;;;;5.73;5.33;;;22.70;99.90;;;;;;5012918;28;21199;-68
2021/07/10 11:02:51;;;;;;;5.43;4.93;;;22.40;99.90;;;;;;5012460;28;20635;-69
2021/07/10 11:05:33;;;;;;;5.30;4.90;;;22.40;99.90;;;;;;5009840;28;20201;-69
2021/07/10 11:08:19;;;;;;;5.13;4.83;;;22.60;99.90;;;;;;5004439;28;20789;-68
2021/07/10 11:11:06;;;;;;;4.27;4.00;;;22.60;99.90;;;;;;5012738;28;20682;-69
2021/07/10 11:13:46;;;;;;;5.30;4.93;;;22.60;99.90;;;;;;5002040;28;20719;-69
2021/07/10 11:16:19;;;;;;;4.70;4.40;;;22.60;99.90;;;;;;4997512;28;20659;-69
2021/07/10 11:19:00;;;;;;;5.23;4.83;;;22.60;99.90;;;;;;5012118;28;20591;-69
2021/07/10 11:21:34;;;;;;;5.33;4.73;;;22.60;99.90;;;;;;5011585;28;20643;-69
2021/07/10 11:26:56;;;;;;;5.00;4.60;;;22.40;99.90;;;;;;5003038;28;20642;-69
2021/07/10 11:29:34;;;;;;;6.20;5.70;;;22.30;99.90;;;;;;5010269;28;20642;-69
2021/07/10 11:32:12;;;;;;;6.40;5.87;;;22.20;99.90;;;;;;5008827;28;21000;-69
2021/07/10 11:34:41;;;;;;;5.67;5.27;;;22.20;99.90;;;;;;5009896;28;20793;-69
2021/07/10 11:37:19;;;;;;;4.83;4.53;;;22.20;99.90;;;;;;5009830;28;20596;-69
2021/07/10 11:39:54;;;;;;;5.20;4.80;;;22.60;99.90;;;;;;5009723;28;20672;-68
2021/07/10 11:42:30;;;;;;;5.27;4.97;;;22.70;99.90;;;;;;5006056;28;20629;-69
2021/07/10 11:44:59;;;;;;;4.60;4.30;;;22.60;99.90;;;;;;5005323;28;20584;-69
2021/07/10 11:47:33;;;;;;;4.53;4.23;;;22.80;99.90;;;;;;5012428;28;20604;-69
2021/07/10 11:50:00;;;;;;;4.43;4.10;;;23.00;99.90;;;;;;5012470;28;20806;-69
2021/07/10 11:52:26;;;;;;;4.93;4.53;;;23.20;99.90;;;;;;5005987;28;21147;-69
2021/07/10 11:54:57;;;;;;;4.67;4.37;;;23.40;99.90;;;;;;5006358;28;20655;-70
2021/07/10 11:57:25;;;;;;;4.70;4.40;;;23.60;99.90;;;;;;5011442;28;20604;-69
2021/07/10 11:59:53;;;;;;;4.10;3.80;;;23.80;99.90;;;;;;5010603;28;20706;-68
2021/07/10 12:02:22;;;;;;;4.90;4.60;;;23.80;99.90;;;;;;5010345;28;20990;-69
2021/07/10 12:05:07;;;;;;;5.20;4.80;;;23.80;99.90;;;;;;5011744;28;20992;-69
2021/07/10 12:07:54;;;;;;;4.77;4.43;;;23.60;99.90;;;;;;5000791;28;20615;-68
2021/07/10 12:10:34;;;;;;;4.73;4.43;;;23.30;99.90;;;;;;5011806;28;21019;-69
2021/07/10 12:13:01;;;;;;;4.80;4.50;;;23.10;99.90;;;;;;5010274;28;20639;-68
2021/07/10 12:15:35;;;;;;;5.07;4.67;;;23.20;99.90;;;;;;5002441;28;20636;-68
2021/07/10 12:18:03;;;;;;;5.43;5.03;;;23.20;99.90;;;;;;5008576;28;20615;-68
2021/07/10 12:20:30;;;;;;;5.50;5.10;;;23.20;99.90;;;;;;5006702;28;20628;-69
2021/07/10 12:23:10;;;;;;;5.97;5.50;;;23.30;99.90;;;;;;5021308;28;20607;-68
2021/07/10 12:26:03;;;;;;;5.60;5.20;;;23.20;99.90;;;;;;5005504;28;20616;-68
2021/07/10 12:28:34;;;;;;;4.70;4.40;;;23.10;99.90;;;;;;5009554;28;20673;-68
2021/07/10 12:31:03;;;;;;;5.13;4.83;;;23.20;99.90;;;;;;5010721;28;20619;-68
2021/07/10 12:33:47;;;;;;;5.20;4.80;;;23.30;99.90;;;;;;5009244;28;21091;-68
2021/07/10 12:36:19;;;;;;;5.13;4.80;;;23.10;99.90;;;;;;5008747;28;20719;-68
2021/07/10 12:39:01;;;;;;;4.53;4.30;;;23.40;99.90;;;;;;5008884;28;20615;-68
2021/07/10 12:41:45;;;;;;;4.40;4.10;;;23.80;99.90;;;;;;4998963;28;20581;-69
2021/07/10 12:44:15;;;;;;;4.73;4.43;;;24.00;99.90;;;;;;5001557;28;20580;-69
2021/07/10 12:47:00;;;;;;;4.33;4.03;;;24.20;99.90;;;;;;5012400;28;21197;-68
2021/07/10 12:49:29;;;;;;;4.47;4.17;;;24.30;99.90;;;;;;5011271;28;21137;-69